Time;durP1;ratioP1;P1;durP2;ratioP2;P2;SDS_P1;SDS_P2;PMS_P1;PMS_P2;Temp;Humidity;BMP_temperature;BMP_pressure;BME280_temperature;BME280_humidity;BME280_pressure;Samples;Min_cycle;Max_cycle;Signal;HPM_P1;HPM_P2
2022/11/01 00:01:15;;;;;;;55.38;30.27;;;;;;;14.31;100.00;97159.63;5041539;28;20076;-83
2022/11/01 00:03:41;;;;;;;54.00;28.88;;;;;;;14.35;100.00;97157.28;5042307;28;20024;-84
2022/11/01 00:06:06;;;;;;;99.13;33.50;;;;;;;14.38;100.00;97149.63;5047930;28;20389;-84
2022/11/01 00:08:32;;;;;;;48.20;27.20;;;;;;;14.40;100.00;97139.59;5051307;28;20029;-84
2022/11/01 00:11:06;;;;;;;53.92;26.27;;;;;;;14.43;100.00;97127.69;5039744;28;20036;-84
2022/11/01 00:13:32;;;;;;;44.60;25.88;;;;;;;14.43;100.00;97120.56;5038151;28;20021;-84
2022/11/01 00:15:57;;;;;;;48.55;24.25;;;;;;;14.41;100.00;97109.50;5046878;28;20108;-85
2022/11/01 00:18:24;;;;;;;39.97;24.25;;;;;;;14.38;100.00;97103.94;5048170;28;20029;-84
2022/11/01 00:20:50;;;;;;;46.67;28.80;;;;;;;14.41;100.00;97100.78;5040693;28;20063;-84
2022/11/01 00:23:15;;;;;;;59.17;28.42;;;;;;;14.44;100.00;97092.31;5022260;28;20116;-83
2022/11/01 00:25:41;;;;;;;57.55;32.42;;;;;;;14.47;100.00;97083.09;5040182;28;20403;-84
2022/11/01 00:28:06;;;;;;;166.05;38.35;;;;;;;14.43;100.00;97083.63;5044704;28;20032;-83
2022/11/01 00:30:36;;;;;;;51.28;30.45;;;;;;;14.48;100.00;97068.81;5041548;28;20063;-84
2022/11/01 00:33:02;;;;;;;57.13;31.75;;;;;;;14.51;100.00;97066.44;5043491;28;20041;-84
2022/11/01 00:35:27;;;;;;;81.70;35.45;;;;;;;14.48;100.00;97058.25;5037758;28;20474;-84
2022/11/01 00:37:53;;;;;;;77.22;37.78;;;;;;;14.51;100.00;97057.72;5045645;28;20435;-84
2022/11/01 00:40:19;;;;;;;78.72;37.78;;;;;;;14.50;100.00;97051.66;5038496;28;20049;-85
2022/11/01 00:42:44;;;;;;;70.90;36.05;;;;;;;14.56;100.00;97044.53;5052653;28;20040;-83
2022/11/01 00:45:10;;;;;;;88.40;40.90;;;;;;;14.59;100.00;97049.25;5043966;28;20109;-86
2022/11/01 00:47:36;;;;;;;85.40;39.25;;;;;;;14.59;100.00;97043.97;5056023;28;20558;-84
2022/11/01 00:50:02;;;;;;;89.18;41.85;;;;;;;14.60;100.00;97040.28;5036879;28;20055;-84
2022/11/01 00:52:27;;;;;;;85.40;40.08;;;;;;;14.54;100.00;97033.41;5035662;28;20450;-83
2022/11/01 00:54:53;;;;;;;81.20;39.17;;;;;;;14.55;100.00;97029.75;5023858;28;20117;-85
2022/11/01 00:57:18;;;;;;;77.72;38.25;;;;;;;14.60;100.00;97028.91;5038293;28;20032;-85
2022/11/01 00:59:45;;;;;;;79.55;39.00;;;;;;;14.57;100.00;97019.69;5020350;28;20024;-85
2022/11/01 01:02:11;;;;;;;76.18;37.42;;;;;;;14.58;100.00;97018.66;5055183;28;20037;-84
2022/11/01 01:04:42;;;;;;;69.45;34.35;;;;;;;14.54;100.00;97001.75;5051807;28;20032;-84
2022/11/01 01:07:13;;;;;;;88.68;38.35;;;;;;;14.54;100.00;96999.09;5049382;28;20102;-85
2022/11/01 01:09:39;;;;;;;77.90;36.40;;;;;;;14.50;100.00;96998.88;5036240;28;20032;-85
2022/11/01 01:12:09;;;;;;;88.47;37.53;;;;;;;14.41;100.00;96995.19;5049865;28;20032;-84
2022/11/01 01:14:41;;;;;;;79.78;35.42;;;;;;;14.52;100.00;96988.81;5041820;28;20021;-85
2022/11/01 01:17:07;;;;;;;71.82;33.03;;;;;;;14.59;100.00;96991.19;5045404;28;20402;-86
2022/11/01 01:19:33;;;;;;;69.43;35.15;;;;;;;14.60;100.00;96987.47;5054693;28;20037;-85
2022/11/01 01:21:59;;;;;;;71.15;34.22;;;;;;;14.61;100.00;96981.13;5028687;28;20112;-85
2022/11/01 01:24:25;;;;;;;105.63;39.70;;;;;;;14.54;100.00;96977.97;5045822;28;20048;-84
2022/11/01 01:26:51;;;;;;;69.38;33.25;;;;;;;14.62;100.00;96974.00;5052823;28;20032;-86
2022/11/01 01:29:16;;;;;;;81.72;36.33;;;;;;;14.62;100.00;96974.78;5042692;28;20028;-85
2022/11/01 01:31:42;;;;;;;68.38;32.38;;;;;;;14.62;100.00;96969.50;5052690;28;20433;-86
2022/11/01 01:34:07;;;;;;;67.57;33.42;;;;;;;14.57;100.00;96969.53;5047367;28;20036;-84
2022/11/01 01:36:33;;;;;;;67.15;32.15;;;;;;;14.61;100.00;96962.66;5051363;28;20108;-84
2022/11/01 01:38:59;;;;;;;69.43;32.75;;;;;;;14.62;100.00;96958.16;5053914;28;20440;-85
2022/11/01 01:44:51;;;;;;;62.30;31.15;;;;;;;14.69;100.00;96956.78;5052159;28;20474;-85
2022/11/01 01:47:23;;;;;;;79.90;34.60;;;;;;;14.67;100.00;96951.00;5005062;28;20096;-84
2022/11/01 01:50:05;;;;;;;65.28;31.48;;;;;;;14.68;100.00;96947.28;5004474;28;20270;-86
2022/11/01 01:52:36;;;;;;;64.60;31.55;;;;;;;14.67;100.00;96945.72;4988186;28;20045;-85
2022/11/01 01:55:06;;;;;;;60.45;31.58;;;;;;;14.61;100.00;96946.00;4987940;28;20430;-84
2022/11/01 01:57:32;;;;;;;58.38;28.35;;;;;;;14.59;100.00;96943.66;4986535;28;20038;-86
2022/11/01 01:59:59;;;;;;;65.97;29.17;;;;;;;14.50;100.00;96950.56;5005092;28;20034;-85
2022/11/01 02:02:24;;;;;;;62.50;28.75;;;;;;;14.30;100.00;96954.84;5003097;28;20022;-86
2022/11/01 02:04:56;;;;;;;51.03;22.10;;;;;;;14.20;100.00;96947.00;5005817;28;20033;-86
2022/11/01 02:07:24;;;;;;;17.45;10.52;;;;;;;14.06;100.00;96937.00;4999608;28;20492;-85
2022/11/01 02:09:50;;;;;;;15.18;7.15;;;;;;;14.08;100.00;96940.16;5002424;28;20034;-84
2022/11/01 02:12:16;;;;;;;7.78;5.75;;;;;;;14.10;100.00;96937.28;5001699;28;20457;-84
2022/11/01 02:14:43;;;;;;;7.63;5.63;;;;;;;14.00;100.00;96932.81;5002593;28;20084;-85
2022/11/01 02:17:26;;;;;;;7.50;5.38;;;;;;;14.05;100.00;96935.44;5001433;28;20042;-84
2022/11/01 02:20:14;;;;;;;9.13;5.95;;;;;;;14.05;100.00;96937.25;5010557;28;20037;-85
2022/11/01 02:23:04;;;;;;;11.20;6.40;;;;;;;13.95;100.00;96930.97;5005436;28;20091;-85
2022/11/01 02:25:57;;;;;;;9.85;6.28;;;;;;;14.07;100.00;96941.22;5003264;28;20107;-84
2022/11/01 02:28:36;;;;;;;8.27;6.25;;;;;;;14.05;100.00;96935.44;4989588;28;20113;-85
2022/11/01 02:31:25;;;;;;;13.32;7.32;;;;;;;13.84;100.00;96935.50;4983023;28;20081;-85
2022/11/01 02:33:59;;;;;;;15.93;8.10;;;;;;;13.70;100.00;96937.09;5000689;28;20121;-85
2022/11/01 02:36:42;;;;;;;19.02;8.32;;;;;;;13.71;100.00;96943.94;5003275;28;20394;-85
2022/11/01 02:39:17;;;;;;;18.30;8.00;;;;;;;13.50;100.00;96938.69;4991342;28;20387;-84
2022/11/01 02:42:21;;;;;;;15.25;8.02;;;;;;;13.47;100.00;96935.81;5004782;28;20516;-85
2022/11/01 02:45:10;;;;;;;;;;;;;;;13.38;100.00;96930.28;4984728;28;20442;-84
2022/11/01 02:47:39;;;;;;;17.73;7.35;;;;;;;13.36;100.00;96929.72;4993714;28;20419;-84
2022/11/01 02:50:08;;;;;;;11.52;6.40;;;;;;;13.51;100.00;96931.59;5006074;28;20491;-84
2022/11/01 02:52:37;;;;;;;11.85;7.05;;;;;;;13.46;100.00;96935.03;5002045;28;20495;-84
2022/11/01 02:55:28;;;;;;;13.07;7.13;;;;;;;13.41;100.00;96924.47;5026525;28;20030;-84
2022/11/01 02:57:59;;;;;;;16.10;7.22;;;;;;;13.34;100.00;96926.56;5002887;28;20072;-84
2022/11/01 03:00:32;;;;;;;22.85;7.28;;;;;;;13.34;100.00;96921.28;4998542;28;20498;-83
2022/11/01 03:03:30;;;;;;;14.87;7.50;;;;;;;13.27;100.00;96927.63;5006787;28;20065;-84
2022/11/01 03:05:58;;;;;;;14.05;6.47;;;;;;;13.40;100.00;96925.53;5003059;28;20129;-83
2022/11/01 03:08:45;;;;;;;14.52;6.30;;;;;;;13.46;100.00;96929.75;5004203;28;20037;-82
2022/11/01 03:11:21;;;;;;;13.20;6.40;;;;;;;13.51;100.00;96927.09;5002927;28;20058;-86
2022/11/01 03:13:47;;;;;;;12.45;6.32;;;;;;;13.53;100.00;96925.00;4997606;28;20488;-85
2022/11/01 03:16:29;;;;;;;10.63;6.72;;;;;;;13.61;100.00;96920.25;5004574;28;20068;-84
2022/11/01 03:19:10;;;;;;;12.75;7.35;;;;;;;13.64;100.00;96919.72;4999604;28;20431;-84
2022/11/01 03:21:41;;;;;;;12.75;7.95;;;;;;;13.54;100.00;96921.28;5002515;28;20038;-85
2022/11/01 03:24:17;;;;;;;12.82;7.53;;;;;;;13.61;100.00;96922.88;5000032;28;20041;-84
2022/11/01 03:26:48;;;;;;;16.50;8.48;;;;;;;13.55;100.00;96917.59;4987363;28;20030;-84
2022/11/01 03:29:16;;;;;;;15.73;7.68;;;;;;;13.59;100.00;96919.72;4998877;28;20029;-83
2022/11/01 03:31:43;;;;;;;13.10;7.22;;;;;;;13.37;100.00;96916.28;5000664;28;20495;-85
2022/11/01 03:34:15;;;;;;;14.65;6.57;;;;;;;13.34;100.00;96922.09;5004898;28;20105;-84
2022/11/01 03:36:52;;;;;;;13.77;6.38;;;;;;;13.20;100.00;96923.66;5003779;28;20057;-83
2022/11/01 03:39:22;;;;;;;9.93;5.45;;;;;;;13.09;100.00;96925.50;4999156;28;20035;-85
2022/11/01 03:41:55;;;;;;;10.98;4.80;;;;;;;12.92;100.00;96921.28;5002082;28;20033;-83
2022/11/01 03:44:21;;;;;;;;;;;;;;;12.83;100.00;96931.53;5003092;28;20026;-83
2022/11/01 03:46:48;;;;;;;11.63;5.38;;;;;;;12.93;100.00;96936.03;4986877;28;20000;-83
2022/11/01 03:49:18;;;;;;;10.00;5.70;;;;;;;12.95;100.00;96941.03;4984802;28;20092;-84
2022/11/01 03:51:45;;;;;;;9.95;6.50;;;;;;;12.92;100.00;96939.72;5000627;28;20420;-84
2022/11/01 03:54:11;;;;;;;10.45;5.95;;;;;;;13.03;100.00;96952.91;4999495;28;20054;-84
2022/11/01 03:56:40;;;;;;;8.50;6.05;;;;;;;12.94;100.00;96956.03;5001388;28;20091;-83
2022/11/01 03:59:08;;;;;;;7.68;5.82;;;;;;;13.02;100.00;96954.75;4998834;28;20045;-84
2022/11/01 04:01:34;;;;;;;7.22;5.40;;;;;;;12.99;100.00;96952.63;5003919;28;20030;-84
2022/11/01 04:03:59;;;;;;;8.98;5.20;;;;;;;13.03;100.00;96973.97;5001970;28;20451;-84
2022/11/01 04:06:25;;;;;;;9.20;5.70;;;;;;;13.09;100.00;96967.66;5000489;28;20022;-86
2022/11/01 04:08:51;;;;;;;6.60;5.15;;;;;;;12.92;100.00;96973.16;4999006;28;20075;-84
2022/11/01 04:11:16;;;;;;;6.63;4.45;;;;;;;12.68;100.00;96979.69;5000181;28;20088;-83
2022/11/01 04:13:42;;;;;;;4.38;3.63;;;;;;;12.69;100.00;96986.53;4981193;28;20045;-83
2022/11/01 04:21:39;;;;;;;7.18;3.47;;;;;;;12.79;100.00;96985.00;5004694;28;20038;-84
2022/11/01 04:24:05;;;;;;;4.25;2.70;;;;;;;12.99;100.00;97000.03;5001706;28;20064;-84
2022/11/01 04:26:31;;;;;;;6.00;3.38;;;;;;;12.64;100.00;96998.88;5001036;28;20551;-83
2022/11/01 04:28:57;;;;;;;2.67;2.20;;;;;;;12.76;100.00;97001.28;4999514;28;20033;-85
2022/11/01 04:31:31;;;;;;;2.15;1.90;;;;;;;12.64;100.00;97012.84;5000966;28;20390;-83
2022/11/01 04:33:58;;;;;;;2.10;1.90;;;;;;;12.78;100.00;96996.56;5002224;28;20045;-84
2022/11/01 04:36:25;;;;;;;3.65;2.03;;;;;;;12.89;100.00;97029.00;5001628;28;20034;-85
2022/11/01 04:38:54;;;;;;;2.65;2.05;;;;;;;12.62;100.00;97028.09;4997641;28;20022;-84
2022/11/01 04:41:21;;;;;;;2.60;2.05;;;;;;;12.53;100.00;97024.38;4998228;28;20046;-83
2022/11/01 04:43:48;;;;;;;3.25;2.63;;;;;;;12.60;100.00;97018.88;5006975;28;20152;-85
2022/11/01 04:46:15;;;;;;;4.28;3.67;;;;;;;12.53;100.00;97056.75;5003833;28;20400;-83
2022/11/01 04:48:41;;;;;;;5.90;5.05;;;;;;;12.69;100.00;97052.34;4986637;28;20030;-84
2022/11/01 04:51:07;;;;;;;6.47;5.55;;;;;;;12.53;100.00;97050.69;5004942;28;20030;-83
2022/11/01 04:53:34;;;;;;;6.13;5.32;;;;;;;12.28;100.00;97076.63;5005039;28;20061;-83
2022/11/01 04:56:02;;;;;;;5.80;5.20;;;;;;;12.50;100.00;97075.69;5003453;28;20152;-84
2022/11/01 04:58:28;;;;;;;8.13;6.65;;;;;;;12.37;100.00;97074.28;5003795;28;20060;-82
2022/11/01 05:00:53;;;;;;;6.60;6.00;;;;;;;12.25;100.00;97085.00;5004757;28;20065;-83
2022/11/01 05:03:20;;;;;;;6.38;5.78;;;;;;;12.25;100.00;97081.59;5004874;28;20093;-83
2022/11/01 05:05:45;;;;;;;6.50;4.95;;;;;;;12.59;100.00;97096.25;5005459;28;20431;-83
2022/11/01 05:08:12;;;;;;;6.90;6.30;;;;;;;12.23;100.00;97094.19;5006594;28;20022;-83
2022/11/01 05:10:43;;;;;;;8.98;7.70;;;;;;;12.31;100.00;97127.13;5004745;28;21749;-83
2022/11/01 05:13:10;;;;;;;8.82;7.93;;;;;;;12.34;100.00;97095.84;5005954;28;20030;-83
2022/11/01 05:15:36;;;;;;;11.20;8.85;;;;;;;12.34;100.00;97101.09;5003914;28;20034;-85
2022/11/01 05:18:02;;;;;;;11.15;9.77;;;;;;;12.20;100.00;97108.63;5004546;28;20100;-84
2022/11/01 05:20:29;;;;;;;7.75;6.95;;;;;;;12.23;100.00;97108.13;5005054;28;20049;-84
2022/11/01 05:22:59;;;;;;;9.07;6.47;;;;;;;12.31;100.00;97125.28;5004184;28;20112;-83
2022/11/01 05:25:27;;;;;;;5.18;4.68;;;;;;;12.33;100.00;97125.81;4987098;28;20026;-84
2022/11/01 05:28:06;;;;;;;6.70;4.07;;;;;;;12.50;100.00;97138.03;4987310;28;20387;-84
2022/11/01 05:30:33;;;;;;;4.25;3.40;;;;;;;12.36;100.00;97143.72;5002757;28;20534;-82
2022/11/01 05:33:04;;;;;;;5.10;3.42;;;;;;;12.53;100.00;97155.94;5007609;28;20128;-83
2022/11/01 05:35:30;;;;;;;3.33;2.47;;;;;;;12.39;100.00;97156.41;5000826;28;20120;-83
2022/11/01 05:37:55;;;;;;;4.65;2.50;;;;;;;12.18;100.00;97163.34;5002191;28;20137;-86
2022/11/01 05:40:22;;;;;;;2.72;2.42;;;;;;;12.46;100.00;97177.22;4988028;28;20030;-83
2022/11/01 05:42:48;;;;;;;7.38;3.10;;;;;;;12.13;100.00;97184.34;5004092;28;20033;-85
2022/11/01 05:45:14;;;;;;;4.85;2.80;;;;;;;12.28;100.00;97181.84;5012564;28;20026;-83
2022/11/01 05:47:40;;;;;;;4.10;2.00;;;;;;;11.85;100.00;97173.00;5043906;28;20119;-87
2022/11/01 05:50:11;;;;;;;3.63;2.05;;;;;;;12.16;100.00;97183.03;5044307;28;20061;-85
2022/11/01 05:52:37;;;;;;;3.15;1.90;;;;;;;11.71;100.00;97185.75;5041534;28;20056;-86
2022/11/01 05:55:04;;;;;;;4.05;1.63;;;;;;;11.78;100.00;97193.44;5029077;28;20037;-85
2022/11/01 05:57:29;;;;;;;2.85;1.95;;;;;;;11.43;100.00;97206.75;5022509;28;20040;-84
2022/11/01 05:59:55;;;;;;;3.45;1.50;;;;;;;11.37;100.00;97209.56;5056996;28;20028;-85
2022/11/01 06:02:21;;;;;;;7.20;1.75;;;;;;;11.43;100.00;97219.09;5050297;28;20143;-85
2022/11/01 06:04:47;;;;;;;2.08;1.80;;;;;;;11.19;100.00;97214.06;5042538;28;20063;-84
2022/11/01 06:07:13;;;;;;;5.35;2.60;;;;;;;11.25;100.00;97231.50;5040343;28;20022;-85
2022/11/01 06:09:38;;;;;;;8.50;2.03;;;;;;;11.21;100.00;97248.78;5049687;28;20039;-87
2022/11/01 06:12:04;;;;;;;7.70;1.83;;;;;;;11.00;100.00;97227.50;5027221;28;20391;-87
2022/11/01 06:14:30;;;;;;;4.57;1.67;;;;;;;10.93;100.00;97244.47;5031075;28;20024;-85
2022/11/01 06:16:56;;;;;;;4.78;1.80;;;;;;;10.94;100.00;97246.81;5044887;28;20533;-86
2022/11/01 06:19:21;;;;;;;5.78;1.70;;;;;;;10.83;100.00;97263.47;5045976;28;20063;-85
2022/11/01 06:21:47;;;;;;;3.70;2.08;;;;;;;10.60;100.00;97265.22;5023873;28;20032;-85
2022/11/01 06:24:13;;;;;;;2.38;1.65;;;;;;;10.71;100.00;97266.97;5036525;28;20060;-86
2022/11/01 06:26:39;;;;;;;4.93;2.00;;;;;;;10.43;100.00;97271.25;5049066;28;20489;-87
2022/11/01 06:29:04;;;;;;;5.72;2.00;;;;;;;10.41;100.00;97264.66;5034357;28;20043;-86
2022/11/01 06:31:31;;;;;;;4.18;2.20;;;;;;;10.56;100.00;97279.84;5041768;28;20035;-86
2022/11/01 06:33:56;;;;;;;8.27;2.22;;;;;;;10.62;100.00;97294.66;5047945;28;20394;-88
2022/11/01 06:36:22;;;;;;;5.57;2.22;;;;;;;10.38;100.00;97286.88;5043444;28;20044;-85
2022/11/01 06:38:48;;;;;;;4.40;2.28;;;;;;;10.47;100.00;97294.41;5046598;28;20032;-87
2022/11/01 06:41:14;;;;;;;3.60;2.00;;;;;;;10.39;100.00;97301.56;5048995;28;20063;-87
2022/11/01 06:43:39;;;;;;;4.82;1.83;;;;;;;10.20;100.00;97308.03;5020018;28;20038;-84
2022/11/01 06:46:05;;;;;;;7.82;1.85;;;;;;;10.28;100.00;97318.19;5006502;28;20060;-84
2022/11/01 06:48:30;;;;;;;9.15;2.08;;;;;;;10.36;100.00;97333.53;4989494;28;20041;-87
2022/11/01 06:50:56;;;;;;;8.43;2.50;;;;;;;10.26;100.00;97325.47;5021250;28;20028;-85
2022/11/01 06:53:23;;;;;;;5.82;1.80;;;;;;;10.07;100.00;97336.16;5027903;28;20021;-88
2022/11/01 06:55:49;;;;;;;3.28;1.83;;;;;;;10.19;100.00;97337.91;5011180;28;20029;-86
2022/11/01 06:58:16;;;;;;;12.38;2.40;;;;;;;10.16;100.00;97344.44;5020609;28;20033;-86
2022/11/01 07:00:41;;;;;;;9.30;1.95;;;;;;;10.23;100.00;97344.31;5012232;28;20080;-90
2022/11/01 07:03:11;;;;;;;13.50;2.50;;;;;;;10.20;100.00;97369.16;5025041;28;20029;-88
2022/11/01 07:05:37;;;;;;;14.90;2.95;;;;;;;10.39;100.00;97364.50;5019730;28;20109;-90
2022/11/01 07:08:06;;;;;;;7.07;2.83;;;;;;;10.22;100.00;97392.50;5027733;28;20487;-87
2022/11/01 07:10:31;;;;;;;9.60;2.72;;;;;;;10.44;100.00;97397.94;5012702;28;20029;-87
2022/11/01 07:13:02;;;;;;;10.63;2.15;;;;;;;10.34;100.00;97403.78;4992441;28;20057;-86
2022/11/01 07:15:28;;;;;;;13.02;3.28;;;;;;;10.32;100.00;97408.44;5006363;28;20537;-86
2022/11/01 07:17:58;;;;;;;8.68;2.30;;;;;;;10.49;100.00;97410.38;5000338;28;20491;-86
2022/11/01 07:20:24;;;;;;;11.40;2.80;;;;;;;10.39;100.00;97406.47;5024118;28;20451;-87
2022/11/01 07:22:59;;;;;;;13.80;2.80;;;;;;;10.38;100.00;97417.22;5031301;28;20035;-87
2022/11/01 07:25:25;;;;;;;13.02;2.38;;;;;;;10.60;100.00;97413.97;5013137;28;20061;-86
2022/11/01 07:27:51;;;;;;;8.70;2.22;;;;;;;10.64;100.00;97417.72;5021526;28;20080;-86
2022/11/01 07:30:17;;;;;;;12.65;3.17;;;;;;;10.77;100.00;97414.00;5023613;28;20108;-86
2022/11/01 07:32:43;;;;;;;19.17;3.20;;;;;;;10.53;100.00;97411.50;5012052;28;20480;-84
2022/11/01 07:35:09;;;;;;;15.13;2.83;;;;;;;10.78;100.00;97426.91;5003181;28;20099;-85
2022/11/01 07:37:35;;;;;;;16.30;2.90;;;;;;;10.59;100.00;97415.78;4996099;28;20025;-82
2022/11/01 07:40:02;;;;;;;21.75;3.80;;;;;;;11.01;100.00;97448.81;4993522;28;20124;-83
2022/11/01 07:42:28;;;;;;;11.32;3.40;;;;;;;10.85;100.00;97434.63;5013191;28;20509;-84
2022/11/01 07:44:54;;;;;;;11.45;3.10;;;;;;;11.19;100.00;97439.13;5018689;28;20068;-86
2022/11/01 07:47:20;;;;;;;12.65;2.75;;;;;;;11.11;100.00;97443.75;5048165;28;20029;-83
2022/11/01 07:49:46;;;;;;;12.18;3.30;;;;;;;11.28;100.00;97456.06;5024597;28;20071;-84
2022/11/01 07:52:12;;;;;;;15.23;2.78;;;;;;;11.44;100.00;97465.03;5041116;28;20039;-83
2022/11/01 07:54:41;;;;;;;26.55;4.47;;;;;;;11.59;100.00;97448.69;5027829;28;20435;-83
2022/11/01 07:57:08;;;;;;;17.65;3.33;;;;;;;11.55;100.00;97432.59;5057391;28;20448;-84
2022/11/01 07:59:34;;;;;;;13.18;3.15;;;;;;;11.56;100.00;97449.94;5029536;28;20066;-85
2022/11/01 08:02:00;;;;;;;17.75;4.03;;;;;;;11.55;100.00;97440.47;5042493;28;20048;-87
2022/11/01 08:04:27;;;;;;;17.40;3.85;;;;;;;11.79;100.00;97455.28;5030375;28;20026;-89
2022/11/01 08:06:52;;;;;;;15.73;3.55;;;;;;;11.77;100.00;97455.50;5020873;28;20387;-87
2022/11/01 08:09:18;;;;;;;20.35;4.22;;;;;;;11.88;100.00;97474.06;5042410;28;20032;-86
2022/11/01 08:11:43;;;;;;;12.90;3.53;;;;;;;11.81;100.00;97456.63;5060223;28;20094;-87
2022/11/01 08:14:12;;;;;;;12.07;3.45;;;;;;;11.94;100.00;97465.19;5024619;28;20055;-84
2022/11/01 08:16:38;;;;;;;16.23;3.38;;;;;;;12.00;100.00;97482.66;5051142;28;20030;-84
2022/11/01 08:19:03;;;;;;;17.33;3.88;;;;;;;11.99;100.00;97467.91;5031740;28;20069;-82
2022/11/01 08:21:29;;;;;;;18.58;3.40;;;;;;;12.10;100.00;97488.06;5041589;28;20463;-83
2022/11/01 08:23:54;;;;;;;12.85;3.08;;;;;;;11.97;100.00;97483.13;5023873;28;20064;-84
2022/11/01 08:26:22;;;;;;;19.13;4.50;;;;;;;12.14;100.00;97480.50;5018606;28;20058;-84
2022/11/01 08:28:51;;;;;;;11.98;3.13;;;;;;;12.03;100.00;97484.81;5041022;28;20064;-83
2022/11/01 08:31:19;;;;;;;14.38;3.20;;;;;;;12.16;100.00;97488.13;5028410;28;20431;-85
2022/11/01 08:33:45;;;;;;;16.52;4.63;;;;;;;11.92;100.00;97494.38;5041671;28;20501;-85
2022/11/01 08:36:11;;;;;;;16.83;3.38;;;;;;;12.06;100.00;97499.31;5026575;28;20032;-87
2022/11/01 08:38:37;;;;;;;15.93;3.95;;;;;;;12.12;100.00;97501.00;5030992;28;20482;-83
2022/11/01 08:41:03;;;;;;;14.75;4.32;;;;;;;12.00;100.00;97504.47;5051396;28;20064;-83
2022/11/01 08:43:28;;;;;;;21.10;3.60;;;;;;;11.91;100.00;97519.09;5020313;28;20033;-83
2022/11/01 08:45:54;;;;;;;19.95;3.97;;;;;;;12.03;100.00;97516.38;5041895;28;20053;-83
2022/11/01 08:48:19;;;;;;;10.63;3.38;;;;;;;12.11;100.00;97515.19;5051951;28;20035;-84
2022/11/01 08:50:45;;;;;;;14.02;3.45;;;;;;;12.17;100.00;97514.19;5050353;28;20485;-84
2022/11/01 08:53:13;;;;;;;21.45;4.75;;;;;;;12.03;100.00;97511.13;5023333;28;20028;-84
2022/11/01 08:55:47;;;;;;;14.30;3.40;;;;;;;12.18;100.00;97517.63;5038126;28;20494;-83
2022/11/01 08:58:13;;;;;;;9.77;3.80;;;;;;;12.27;100.00;97516.19;5033713;28;20663;-83
2022/11/01 09:00:38;;;;;;;17.48;5.13;;;;;;;11.94;100.00;97515.97;5009497;28;20051;-83
2022/11/01 09:03:04;;;;;;;16.33;4.57;;;;;;;12.24;100.00;97511.41;5038610;28;20078;-82
2022/11/01 09:05:30;;;;;;;9.73;3.60;;;;;;;12.54;100.00;97500.47;5029887;28;20397;-82
2022/11/01 09:07:58;;;;;;;16.80;3.75;;;;;;;12.48;100.00;97498.00;5041213;28;20032;-83
2022/11/01 09:10:24;;;;;;;14.05;4.38;;;;;;;12.35;100.00;97513.13;5036591;28;20147;-82
2022/11/01 09:12:49;;;;;;;16.75;3.85;;;;;;;12.37;100.00;97503.13;5053481;28;20032;-84
2022/11/01 09:15:15;;;;;;;14.57;3.45;;;;;;;12.45;100.00;97506.41;5040883;28;20482;-84
2022/11/01 09:17:41;;;;;;;8.50;3.28;;;;;;;12.51;100.00;97489.63;5036332;28;20384;-84
2022/11/01 09:20:08;;;;;;;13.05;3.95;;;;;;;12.35;100.00;97489.44;5035459;28;20483;-84
2022/11/01 09:22:36;;;;;;;10.13;3.05;;;;;;;12.37;100.00;97495.25;5050555;28;20034;-83
2022/11/01 09:25:03;;;;;;;15.95;3.55;;;;;;;12.34;100.00;97501.00;5045025;28;20044;-82
2022/11/01 09:27:29;;;;;;;10.82;3.95;;;;;;;12.42;100.00;97492.69;5042651;28;20115;-83
2022/11/01 09:29:54;;;;;;;15.93;3.45;;;;;;;12.34;100.00;97500.22;5044630;28;20075;-83
2022/11/01 09:32:20;;;;;;;8.40;2.92;;;;;;;12.38;100.00;97510.03;5040150;28;20462;-82
2022/11/01 09:34:47;;;;;;;9.65;3.08;;;;;;;12.53;100.00;97505.97;5036177;28;20036;-83
2022/11/01 09:37:14;;;;;;;10.25;2.65;;;;;;;12.65;100.00;97490.84;5021311;28;20487;-82
2022/11/01 09:39:42;;;;;;;11.07;2.55;;;;;;;12.82;100.00;97500.50;5030427;28;20033;-83
2022/11/01 09:42:25;;;;;;;12.68;3.20;;;;;;;12.77;100.00;97509.16;5024162;28;20029;-86
2022/11/01 09:44:55;;;;;;;11.00;2.72;;;;;;;12.71;100.00;97513.56;5053835;28;20558;-84
2022/11/01 09:47:27;;;;;;;10.00;2.67;;;;;;;12.77;100.00;97510.97;5053999;28;20033;-87
2022/11/01 09:50:07;;;;;;;18.65;3.13;;;;;;;12.64;100.00;97506.88;5042920;28;20036;-88
2022/11/01 09:52:32;;;;;;;10.98;2.60;;;;;;;12.62;100.00;97514.22;5028714;28;20028;-87
2022/11/01 09:54:58;;;;;;;11.48;2.80;;;;;;;12.43;100.00;97504.81;5026029;28;20046;-87
2022/11/01 09:57:29;;;;;;;15.63;3.22;;;;;;;12.44;100.00;97516.13;5052367;28;20113;-88
2022/11/01 10:00:12;;;;;;;9.07;2.58;;;;;;;12.27;100.00;97522.22;5053448;28;20032;-88
2022/11/01 10:03:16;;;;;;;11.82;2.42;;;;;;;12.41;100.00;97527.13;5062289;28;20024;-83
2022/11/01 10:05:57;;;;;;;;;;;;;;;12.64;100.00;97541.91;4950826;28;20030;-83
2022/11/01 10:09:19;;;;;;;16.50;2.83;;;;;;;12.67;100.00;97559.03;4984691;28;19922;-84
2022/11/01 10:12:20;;;;;;;13.88;2.35;;;;;;;12.58;100.00;97553.44;4960184;28;20489;-83
2022/11/01 10:14:45;;;;;;;10.05;2.85;;;;;;;12.39;100.00;97558.16;4937845;28;20413;-84
2022/11/01 10:17:22;;;;;;;10.88;2.80;;;;;;;12.69;100.00;97570.91;5008114;28;20048;-84
2022/11/01 10:19:49;;;;;;;13.02;2.42;;;;;;;12.28;100.00;97565.94;5059543;28;20035;-84
2022/11/01 10:22:18;;;;;;;19.75;2.78;;;;;;;12.66;100.00;97574.03;5028619;28;20034;-85
2022/11/01 10:24:49;;;;;;;6.97;2.20;;;;;;;12.70;100.00;97559.34;5043562;28;20505;-85
2022/11/01 10:27:28;;;;;;;10.43;3.17;;;;;;;12.52;100.00;97562.28;5043812;28;20041;-84
2022/11/01 10:30:13;;;;;;;13.18;2.30;;;;;;;12.46;100.00;97568.53;5027090;28;20041;-84
2022/11/01 10:32:42;;;;;;;11.48;2.30;;;;;;;12.38;100.00;97570.53;5052813;28;20039;-88
2022/11/01 10:35:19;;;;;;;14.32;3.17;;;;;;;12.49;100.00;97582.00;5055226;28;20061;-85
2022/11/01 10:38:33;;;;;;;10.95;2.55;;;;;;;12.29;100.00;97577.25;5052988;28;20103;-90
2022/11/01 10:41:10;;;;;;;8.05;2.25;;;;;;;12.50;100.00;97598.56;5031122;28;20033;-89
2022/11/01 10:43:49;;;;;;;7.35;1.95;;;;;;;12.39;100.00;97582.66;5036161;28;20039;-88
2022/11/01 10:46:20;;;;;;;11.13;2.50;;;;;;;12.46;100.00;97592.19;5056210;28;20049;-87
2022/11/01 10:48:53;;;;;;;10.57;2.33;;;;;;;12.46;100.00;97614.03;5049706;28;20040;-89
2022/11/01 10:51:23;;;;;;;11.02;2.65;;;;;;;12.45;100.00;97611.66;5058500;28;20024;-90
2022/11/01 10:53:56;;;;;;;14.23;2.50;;;;;;;12.60;100.00;97619.78;5030007;28;20471;-90
2022/11/01 10:56:31;;;;;;;10.68;2.58;;;;;;;12.73;100.00;97628.34;5048499;28;20078;-90
2022/11/01 10:59:10;;;;;;;10.82;2.33;;;;;;;12.59;100.00;97639.25;5046213;28;20111;-88
2022/11/01 11:01:42;;;;;;;14.40;3.40;;;;;;;12.65;100.00;97627.75;5028609;28;20080;-90
2022/11/01 11:04:15;;;;;;;14.15;2.20;;;;;;;12.90;100.00;97639.63;5029991;28;20056;-88
2022/11/01 11:06:42;;;;;;;8.90;2.63;;;;;;;13.02;100.00;97636.88;5026598;28;20033;-87
2022/11/01 11:09:37;;;;;;;11.80;2.45;;;;;;;13.05;100.00;97646.91;5049282;28;20028;-87
2022/11/01 11:12:10;;;;;;;7.97;2.30;;;;;;;13.03;100.00;97637.69;5054103;28;20068;-85
2022/11/01 11:14:36;;;;;;;11.13;2.30;;;;;;;13.07;100.00;97638.78;5054938;28;20541;-87
2022/11/01 11:17:03;;;;;;;7.93;2.55;;;;;;;13.07;100.00;97644.88;5043453;28;20033;-87
2022/11/01 11:19:28;;;;;;;8.68;2.45;;;;;;;13.07;100.00;97646.69;5060431;28;20038;-86
2022/11/01 11:21:55;;;;;;;9.50;2.67;;;;;;;13.14;100.00;97647.28;5054680;28;20060;-86
2022/11/01 11:24:23;;;;;;;6.75;2.22;;;;;;;12.74;100.00;97640.47;5061558;28;20040;-87
2022/11/01 11:26:53;;;;;;;12.45;2.35;;;;;;;12.83;100.00;97639.81;5027450;28;20120;-86
2022/11/01 11:29:22;;;;;;;11.25;3.05;;;;;;;13.10;100.00;97647.00;5025183;28;20470;-86
2022/11/01 11:31:55;;;;;;;10.25;2.40;;;;;;;13.21;100.00;97650.56;5042254;28;20107;-85
2022/11/01 11:34:31;;;;;;;9.68;2.35;;;;;;;13.04;100.00;97661.13;5054025;28;20028;-86
2022/11/01 11:36:59;;;;;;;8.02;2.10;;;;;;;12.90;100.00;97655.44;5040520;28;20120;-85
2022/11/01 11:39:27;;;;;;;16.00;3.53;;;;;;;12.82;100.00;97666.41;5047820;28;20029;-86